Time;durP1;ratioP1;P1;durP2;ratioP2;P2;SDS_P1;SDS_P2;PMS_P1;PMS_P2;Temp;Humidity;BMP_temperature;BMP_pressure;BME280_temperature;BME280_humidity;BME280_pressure;Samples;Min_cycle;Max_cycle;Signal;HPM_P1;HPM_P2
2022/10/16 00:01:21;;;;;;;17.70;15.80;;;15.80;99.90;;;;;;5080005;28;20445;-50
2022/10/16 00:03:47;;;;;;;16.47;14.77;;;15.80;99.90;;;;;;5065847;28;20506;-49
2022/10/16 00:06:14;;;;;;;16.53;14.90;;;15.80;99.90;;;;;;5080430;28;20897;-50
2022/10/16 00:08:40;;;;;;;17.67;15.77;;;15.80;99.90;;;;;;5087610;28;20911;-47
2022/10/16 00:11:09;;;;;;;17.10;15.30;;;15.80;99.90;;;;;;5065282;28;20449;-47
2022/10/16 00:13:36;;;;;;;17.70;14.77;;;15.80;99.90;;;;;;5085824;28;20446;-52
2022/10/16 00:16:03;;;;;;;17.00;15.30;;;15.70;99.90;;;;;;5075980;28;20463;-48
2022/10/16 00:18:29;;;;;;;16.80;14.50;;;15.70;99.90;;;;;;5086626;28;20800;-50
2022/10/16 00:21:01;;;;;;;16.07;14.37;;;15.70;99.90;;;;;;5078436;28;20437;-47
2022/10/16 00:23:26;;;;;;;18.00;14.70;;;15.70;99.90;;;;;;5086653;28;20546;-49
2022/10/16 00:26:01;;;;;;;17.17;15.47;;;15.70;99.90;;;;;;5087462;28;20423;-50
2022/10/16 00:28:27;;;;;;;19.60;14.80;;;15.60;99.90;;;;;;5085779;28;20201;-48
2022/10/16 00:30:53;;;;;;;17.47;15.20;;;15.60;99.90;;;;;;5087601;28;20448;-47
2022/10/16 00:33:19;;;;;;;17.03;15.23;;;15.60;99.90;;;;;;5087603;28;20497;-50
2022/10/16 00:35:44;;;;;;;16.43;14.73;;;15.50;99.90;;;;;;5087082;28;20449;-53
2022/10/16 00:38:10;;;;;;;15.67;14.03;;;15.50;99.90;;;;;;5087160;28;20771;-49
2022/10/16 00:40:36;;;;;;;16.50;14.80;;;15.50;99.90;;;;;;5088343;28;20198;-48
2022/10/16 00:43:01;;;;;;;16.13;14.10;;;15.50;99.90;;;;;;5086489;28;20225;-50
2022/10/16 00:45:27;;;;;;;16.53;14.73;;;15.50;99.90;;;;;;5087333;28;20752;-47
2022/10/16 00:47:55;;;;;;;15.70;14.10;;;15.60;99.90;;;;;;5090220;28;20203;-48
2022/10/16 00:50:29;;;;;;;16.57;14.90;;;15.50;99.90;;;;;;5091413;28;20194;-46
2022/10/16 00:52:56;;;;;;;16.70;14.30;;;15.50;99.90;;;;;;5091321;28;20992;-49
2022/10/16 00:55:22;;;;;;;15.57;13.97;;;15.50;99.90;;;;;;5077377;28;20453;-48
2022/10/16 00:57:49;;;;;;;16.97;15.17;;;15.50;99.90;;;;;;5090581;28;20439;-51
2022/10/16 01:00:19;;;;;;;15.83;14.23;;;15.50;99.90;;;;;;5084786;28;20448;-49
2022/10/16 01:02:51;;;;;;;15.53;14.03;;;15.50;99.90;;;;;;5086646;28;20570;-51
2022/10/16 01:05:17;;;;;;;15.47;13.87;;;15.50;99.90;;;;;;5086286;28;20444;-48
2022/10/16 01:08:15;;;;;;;15.60;14.10;;;15.50;99.90;;;;;;5090272;28;20450;-48
2022/10/16 01:10:44;;;;;;;15.27;13.73;;;15.40;99.90;;;;;;5070397;28;20195;-49
2022/10/16 01:13:15;;;;;;;14.83;13.30;;;15.50;99.90;;;;;;5090367;28;20432;-48
2022/10/16 01:16:06;;;;;;;14.97;13.40;;;15.50;99.90;;;;;;5091430;28;20948;-49
2022/10/16 01:18:37;;;;;;;16.10;14.40;;;15.50;99.90;;;;;;5088443;28;21128;-47
2022/10/16 01:21:07;;;;;;;16.77;14.97;;;15.60;99.90;;;;;;5090122;28;21093;-48
2022/10/16 01:23:52;;;;;;;16.77;14.27;;;15.70;99.90;;;;;;5090505;28;20472;-45
2022/10/16 01:26:30;;;;;;;17.70;15.90;;;15.70;99.90;;;;;;5093674;28;20444;-51
2022/10/16 01:29:06;;;;;;;16.90;15.20;;;15.70;99.90;;;;;;5088727;28;20850;-47
2022/10/16 01:31:36;;;;;;;16.37;14.77;;;15.70;99.90;;;;;;5079730;28;20491;-50
2022/10/16 01:34:12;;;;;;;17.87;15.97;;;15.80;99.90;;;;;;5081614;28;20792;-51
2022/10/16 01:36:47;;;;;;;16.10;14.50;;;15.90;99.90;;;;;;5086962;28;20588;-47
2022/10/16 01:39:14;;;;;;;17.63;14.87;;;15.90;99.90;;;;;;5088052;28;20428;-48
2022/10/16 01:41:47;;;;;;;17.53;15.70;;;16.00;99.90;;;;;;5078373;28;20809;-46
2022/10/16 01:44:32;;;;;;;17.10;15.40;;;16.10;99.90;;;;;;5091693;28;20445;-52
2022/10/16 01:46:59;;;;;;;18.40;16.53;;;16.10;99.90;;;;;;5090074;28;20434;-50
2022/10/16 01:49:29;;;;;;;17.27;15.50;;;16.20;99.90;;;;;;5090094;28;20472;-47
2022/10/16 01:51:59;;;;;;;18.97;16.47;;;16.20;99.90;;;;;;5088203;28;20974;-46
2022/10/16 01:54:31;;;;;;;19.23;17.33;;;16.20;99.90;;;;;;5090850;28;20457;-52
2022/10/16 01:56:58;;;;;;;18.50;16.50;;;16.30;99.90;;;;;;5089066;28;20453;-49
2022/10/16 01:59:26;;;;;;;17.90;16.03;;;16.40;99.90;;;;;;5090392;28;20442;-48
2022/10/16 02:01:56;;;;;;;18.43;16.63;;;16.30;99.90;;;;;;5089673;28;20775;-48
2022/10/16 02:04:30;;;;;;;18.93;16.97;;;16.40;99.90;;;;;;5078519;28;20448;-48
2022/10/16 02:07:41;;;;;;;17.47;15.67;;;16.50;99.90;;;;;;5084046;28;20466;-53
2022/10/16 02:10:07;;;;;;;18.43;16.03;;;16.40;99.90;;;;;;4971470;28;20506;-51
2022/10/16 02:12:36;;;;;;;18.67;16.67;;;16.40;99.90;;;;;;4986069;28;20459;-51
2022/10/16 02:15:01;;;;;;;18.73;16.83;;;16.40;99.90;;;;;;4986127;28;20985;-50
2022/10/16 02:17:27;;;;;;;20.03;16.63;;;16.50;99.90;;;;;;4986523;28;20486;-47
2022/10/16 02:19:55;;;;;;;21.60;17.30;;;16.50;99.90;;;;;;4984615;28;20200;-48
2022/10/16 02:22:30;;;;;;;17.33;15.67;;;16.50;99.90;;;;;;4986573;28;20681;-47
2022/10/16 02:25:08;;;;;;;17.57;15.77;;;16.50;99.90;;;;;;4998261;28;20452;-54
2022/10/16 02:27:41;;;;;;;17.37;14.97;;;16.50;99.90;;;;;;4985823;28;20473;-49
2022/10/16 02:30:22;;;;;;;18.00;16.10;;;16.50;99.90;;;;;;4992936;28;20429;-49
2022/10/16 02:32:49;;;;;;;18.07;16.23;;;16.50;99.90;;;;;;4987685;28;20473;-48
2022/10/16 02:35:18;;;;;;;18.80;16.90;;;16.50;99.90;;;;;;4988104;28;20455;-49
2022/10/16 02:37:44;;;;;;;18.30;16.37;;;16.50;99.90;;;;;;4987577;28;20456;-48
2022/10/16 02:40:11;;;;;;;16.93;14.73;;;16.50;99.90;;;;;;4986898;28;20537;-48
2022/10/16 02:42:38;;;;;;;18.03;16.30;;;16.50;99.90;;;;;;4985534;28;20485;-48
2022/10/16 02:45:05;;;;;;;18.50;15.37;;;16.50;99.90;;;;;;4987811;28;20469;-52
2022/10/16 02:47:31;;;;;;;18.40;15.47;;;16.50;99.90;;;;;;5063138;28;20472;-48
2022/10/16 02:49:57;;;;;;;18.03;16.30;;;16.50;99.90;;;;;;5073405;28;20442;-49
2022/10/16 02:52:22;;;;;;;17.30;15.50;;;16.50;99.90;;;;;;5089741;28;20196;-50
2022/10/16 02:54:48;;;;;;;16.67;14.97;;;16.50;99.90;;;;;;5083040;28;20203;-48
2022/10/16 02:57:14;;;;;;;16.20;14.50;;;16.50;99.90;;;;;;5088570;28;20207;-48
2022/10/16 02:59:39;;;;;;;16.20;14.60;;;16.50;99.90;;;;;;5083016;28;20665;-47
2022/10/16 03:02:05;;;;;;;16.90;15.13;;;16.40;99.90;;;;;;5089226;28;20949;-50
2022/10/16 03:04:30;;;;;;;17.60;15.90;;;16.40;99.90;;;;;;5088889;28;20192;-51
2022/10/16 03:06:56;;;;;;;15.47;13.83;;;16.50;99.90;;;;;;5082117;28;20701;-47
2022/10/16 03:09:21;;;;;;;16.10;14.40;;;16.40;99.90;;;;;;5086870;28;20754;-48
2022/10/16 03:11:47;;;;;;;16.00;14.40;;;16.40;99.90;;;;;;5088625;28;20707;-52
2022/10/16 03:14:13;;;;;;;15.97;14.40;;;16.40;99.90;;;;;;5087718;28;20226;-49
2022/10/16 03:16:38;;;;;;;16.03;14.50;;;16.40;99.90;;;;;;5088685;28;20187;-50
2022/10/16 03:19:04;;;;;;;18.37;15.27;;;16.30;99.90;;;;;;5087703;28;20243;-45
2022/10/16 03:21:29;;;;;;;16.77;15.07;;;16.30;99.90;;;;;;5089014;28;20189;-48
2022/10/16 03:23:55;;;;;;;16.30;14.60;;;16.20;99.90;;;;;;5088438;28;20540;-51
2022/10/16 03:26:20;;;;;;;16.37;14.67;;;16.20;99.90;;;;;;5087512;28;20191;-44
2022/10/16 03:28:46;;;;;;;16.27;14.20;;;16.20;99.90;;;;;;5087932;28;20314;-45
2022/10/16 03:31:12;;;;;;;16.17;14.53;;;16.30;99.90;;;;;;5089331;28;20188;-47
2022/10/16 03:33:37;;;;;;;16.03;14.43;;;16.30;99.90;;;;;;5079522;28;20212;-46
2022/10/16 03:36:03;;;;;;;17.20;15.60;;;16.30;99.90;;;;;;5088567;28;20287;-47
2022/10/16 03:38:28;;;;;;;16.33;14.63;;;16.30;99.90;;;;;;5084777;28;20287;-46
2022/10/16 03:40:54;;;;;;;16.60;15.00;;;16.30;99.90;;;;;;5080582;28;20193;-47
2022/10/16 03:43:19;;;;;;;17.57;15.87;;;16.30;99.90;;;;;;5088456;28;20238;-46
2022/10/16 03:45:45;;;;;;;20.10;16.23;;;16.30;99.90;;;;;;5089109;28;20263;-44
2022/10/16 03:48:11;;;;;;;17.80;16.10;;;16.30;99.90;;;;;;5080069;28;20196;-44
2022/10/16 03:50:37;;;;;;;17.53;15.53;;;16.30;99.90;;;;;;5068408;28;20274;-45
2022/10/16 03:53:03;;;;;;;16.47;14.80;;;16.30;99.90;;;;;;5092611;28;20210;-47
2022/10/16 03:55:28;;;;;;;17.00;15.30;;;16.30;99.90;;;;;;5087371;28;20472;-47
2022/10/16 03:57:54;;;;;;;18.13;16.33;;;16.30;99.90;;;;;;5085793;28;20447;-47
2022/10/16 04:00:19;;;;;;;18.43;16.63;;;16.30;99.90;;;;;;5087082;28;20188;-47
2022/10/16 04:02:45;;;;;;;17.77;16.17;;;16.30;99.90;;;;;;5088268;28;20226;-46
2022/10/16 04:05:11;;;;;;;17.77;15.97;;;16.20;99.90;;;;;;5088277;28;20199;-48
2022/10/16 04:07:37;;;;;;;17.87;16.10;;;16.20;99.90;;;;;;5087394;28;20333;-46
2022/10/16 04:10:05;;;;;;;18.20;16.40;;;16.10;99.90;;;;;;5087697;28;20458;-49
2022/10/16 04:12:30;;;;;;;17.77;16.03;;;16.10;99.90;;;;;;5086932;28;21033;-44
2022/10/16 04:14:56;;;;;;;18.03;16.23;;;16.10;99.90;;;;;;5089203;28;20426;-46
2022/10/16 04:17:21;;;;;;;17.80;16.00;;;16.20;99.90;;;;;;5068990;28;20279;-46
2022/10/16 04:19:47;;;;;;;17.90;16.20;;;16.20;99.90;;;;;;5088087;28;20738;-45
2022/10/16 04:22:12;;;;;;;17.80;16.00;;;16.20;99.90;;;;;;5087598;28;20238;-48
2022/10/16 04:24:38;;;;;;;18.17;16.27;;;16.20;99.90;;;;;;5069972;28;20204;-46
2022/10/16 04:27:03;;;;;;;17.90;16.10;;;16.20;99.90;;;;;;5084865;28;20206;-44
2022/10/16 04:29:29;;;;;;;17.60;15.80;;;16.20;99.90;;;;;;5088656;28;20307;-47
2022/10/16 04:31:55;;;;;;;19.00;17.00;;;16.20;99.90;;;;;;5081875;28;20192;-43
2022/10/16 04:34:20;;;;;;;16.70;15.00;;;16.10;99.90;;;;;;5088270;28;20203;-47
2022/10/16 04:36:49;;;;;;;17.37;15.67;;;16.20;99.90;;;;;;5086144;28;20245;-44
2022/10/16 04:39:16;;;;;;;17.13;15.40;;;16.10;99.90;;;;;;5068299;28;20237;-46
2022/10/16 04:41:41;;;;;;;17.10;15.40;;;16.10;99.90;;;;;;5088648;28;20866;-48
2022/10/16 04:44:07;;;;;;;17.17;15.47;;;16.20;99.90;;;;;;5087720;28;20523;-49
2022/10/16 04:46:32;;;;;;;17.30;15.60;;;16.20;99.90;;;;;;5087690;28;20195;-48
2022/10/16 04:48:58;;;;;;;16.40;14.90;;;16.10;99.90;;;;;;5087239;28;20226;-49
2022/10/16 04:51:25;;;;;;;15.90;14.30;;;16.10;99.90;;;;;;5079423;28;20203;-44
2022/10/16 04:53:51;;;;;;;17.73;15.93;;;16.10;99.90;;;;;;5084214;28;20699;-47
2022/10/16 04:56:16;;;;;;;17.90;16.10;;;16.00;99.90;;;;;;5086414;28;20484;-49
2022/10/16 04:58:42;;;;;;;15.90;14.30;;;16.00;99.90;;;;;;5087380;28;20218;-50
2022/10/16 05:01:07;;;;;;;17.23;15.43;;;16.00;99.90;;;;;;5086692;28;20575;-49
2022/10/16 05:03:33;;;;;;;16.37;14.77;;;16.00;99.90;;;;;;5087508;28;20641;-47
2022/10/16 05:05:59;;;;;;;15.47;13.97;;;15.90;99.90;;;;;;5086698;28;20235;-49
2022/10/16 05:08:24;;;;;;;15.60;14.10;;;16.00;99.90;;;;;;5068652;28;20474;-47
2022/10/16 05:10:50;;;;;;;15.63;13.90;;;16.00;99.90;;;;;;5091058;28;20690;-49
2022/10/16 05:13:16;;;;;;;15.57;14.07;;;16.00;99.90;;;;;;5090229;28;20805;-53
2022/10/16 05:15:41;;;;;;;15.73;14.17;;;16.10;99.90;;;;;;5084094;28;20234;-50
2022/10/16 05:18:08;;;;;;;15.23;13.63;;;16.00;99.90;;;;;;5081392;28;20231;-50
2022/10/16 05:20:34;;;;;;;15.57;14.03;;;16.00;99.90;;;;;;5086559;28;20203;-51
2022/10/16 05:22:59;;;;;;;14.70;13.20;;;16.10;99.90;;;;;;5077168;28;20880;-47
2022/10/16 05:25:25;;;;;;;16.50;14.43;;;16.10;99.90;;;;;;5086830;28;20480;-48
2022/10/16 05:27:51;;;;;;;14.30;13.00;;;16.10;99.90;;;;;;5083772;28;20196;-50
2022/10/16 05:30:17;;;;;;;14.50;13.00;;;16.10;99.90;;;;;;5088114;28;20188;-52
2022/10/16 05:32:48;;;;;;;15.10;13.60;;;16.10;99.90;;;;;;5085981;28;20199;-46
2022/10/16 05:35:14;;;;;;;15.77;14.27;;;16.10;99.90;;;;;;5090553;28;20437;-49
2022/10/16 05:37:40;;;;;;;15.10;13.67;;;16.10;99.90;;;;;;5083185;28;20444;-48
2022/10/16 05:40:06;;;;;;;15.90;14.10;;;16.20;99.90;;;;;;5083516;28;21047;-45
2022/10/16 05:42:32;;;;;;;15.80;14.30;;;16.10;99.90;;;;;;5091138;28;20218;-49
2022/10/16 05:44:57;;;;;;;15.37;13.87;;;16.10;99.90;;;;;;5090132;28;20450;-50
2022/10/16 05:47:23;;;;;;;16.00;14.43;;;16.20;99.90;;;;;;5090022;28;20206;-51
2022/10/16 05:49:49;;;;;;;16.57;14.87;;;16.20;99.90;;;;;;5090523;28;20649;-52
2022/10/16 05:52:14;;;;;;;16.13;14.63;;;16.20;99.90;;;;;;5090996;28;20261;-49
2022/10/16 05:54:40;;;;;;;17.27;15.57;;;16.20;99.90;;;;;;5090723;28;20200;-52
2022/10/16 05:57:05;;;;;;;17.90;15.60;;;16.20;99.90;;;;;;5078082;28;20225;-51
2022/10/16 05:59:31;;;;;;;19.30;16.47;;;16.20;99.90;;;;;;5089887;28;20200;-48
2022/10/16 06:01:57;;;;;;;17.50;15.80;;;16.10;99.90;;;;;;5090328;28;20195;-51
2022/10/16 06:04:23;;;;;;;17.30;15.60;;;16.20;99.90;;;;;;5070743;28;20865;-51
2022/10/16 06:06:48;;;;;;;18.03;16.10;;;16.20;99.90;;;;;;5087860;28;20309;-48
2022/10/16 06:09:14;;;;;;;19.07;16.43;;;16.20;99.90;;;;;;5089181;28;20617;-47
2022/10/16 06:11:39;;;;;;;18.03;16.13;;;16.30;99.90;;;;;;5084552;28;20188;-48
2022/10/16 06:14:08;;;;;;;18.13;16.33;;;16.30;99.90;;;;;;5080297;28;20590;-50
2022/10/16 06:16:35;;;;;;;19.10;17.10;;;16.40;99.90;;;;;;5080019;28;20666;-48
2022/10/16 06:19:01;;;;;;;18.83;16.93;;;16.40;99.90;;;;;;5078876;28;20434;-49
2022/10/16 06:21:28;;;;;;;18.90;16.93;;;16.50;99.90;;;;;;5081225;28;20431;-48
2022/10/16 06:23:55;;;;;;;19.37;17.30;;;16.60;99.90;;;;;;5079484;28;20530;-48
2022/10/16 06:26:24;;;;;;;19.90;17.80;;;16.60;99.90;;;;;;5078460;28;22261;-51
2022/10/16 06:28:49;;;;;;;19.97;17.87;;;16.70;99.90;;;;;;5080117;28;20439;-48
2022/10/16 06:31:16;;;;;;;19.67;17.77;;;16.80;99.90;;;;;;5077549;28;20612;-50
2022/10/16 06:33:42;;;;;;;19.00;17.00;;;16.80;99.90;;;;;;5080756;28;20535;-47
2022/10/16 06:36:14;;;;;;;20.73;17.77;;;16.90;99.90;;;;;;5080803;28;20499;-48
2022/10/16 06:38:40;;;;;;;19.47;17.53;;;16.90;99.90;;;;;;5081634;28;21113;-46
2022/10/16 06:41:07;;;;;;;17.97;16.07;;;16.90;99.90;;;;;;5078752;28;20935;-46
2022/10/16 06:43:35;;;;;;;19.63;17.70;;;17.00;99.90;;;;;;5081090;28;21005;-49
2022/10/16 06:46:01;;;;;;;18.87;16.90;;;17.00;99.90;;;;;;5080006;28;20473;-49
2022/10/16 06:48:28;;;;;;;18.57;16.20;;;17.10;99.90;;;;;;5079517;28;20459;-47
2022/10/16 06:50:56;;;;;;;18.20;16.40;;;17.20;99.90;;;;;;5080650;28;20438;-46
2022/10/16 06:53:22;;;;;;;18.43;16.60;;;17.20;99.90;;;;;;5078644;28;20636;-47
2022/10/16 06:55:48;;;;;;;19.10;17.20;;;17.30;99.90;;;;;;5080274;28;20455;-49
2022/10/16 06:58:13;;;;;;;19.00;17.10;;;17.40;99.90;;;;;;5080922;28;20251;-48
2022/10/16 07:00:39;;;;;;;18.07;16.37;;;17.40;99.90;;;;;;5080564;28;20204;-46
2022/10/16 07:03:05;;;;;;;18.93;17.10;;;17.40;99.90;;;;;;5072371;28;20215;-49
2022/10/16 07:05:30;;;;;;;18.33;16.53;;;17.50;99.90;;;;;;5073626;28;20224;-52
2022/10/16 07:07:56;;;;;;;17.50;15.80;;;17.60;99.90;;;;;;5081854;28;20185;-51
2022/10/16 07:10:23;;;;;;;17.60;16.00;;;17.70;99.90;;;;;;5081415;28;20200;-51
2022/10/16 07:12:49;;;;;;;17.90;16.20;;;17.60;99.90;;;;;;5081312;28;20184;-49
2022/10/16 07:15:15;;;;;;;18.87;17.07;;;17.60;99.90;;;;;;5081105;28;20538;-49
2022/10/16 07:17:40;;;;;;;18.20;16.40;;;17.60;99.90;;;;;;5080506;28;20192;-47
2022/10/16 07:20:07;;;;;;;18.70;16.90;;;17.60;99.90;;;;;;5080798;28;20559;-51
2022/10/16 07:22:32;;;;;;;18.13;16.43;;;17.70;99.90;;;;;;5080009;28;20208;-48
2022/10/16 07:24:58;;;;;;;18.33;16.63;;;17.70;99.90;;;;;;5076724;28;20434;-47
2022/10/16 07:27:24;;;;;;;17.17;15.57;;;17.80;99.90;;;;;;5080622;28;20637;-48
2022/10/16 07:29:49;;;;;;;17.43;15.87;;;17.80;99.90;;;;;;5080135;28;20431;-51
2022/10/16 07:32:15;;;;;;;16.90;15.30;;;17.80;99.90;;;;;;5080248;28;20197;-51
2022/10/16 07:34:41;;;;;;;17.30;15.77;;;17.90;99.90;;;;;;5079050;28;20273;-48
2022/10/16 07:37:07;;;;;;;16.70;15.10;;;17.90;99.90;;;;;;5079584;28;20184;-53
2022/10/16 07:39:33;;;;;;;17.57;15.73;;;17.90;99.90;;;;;;5080859;28;21023;-52
2022/10/16 07:41:58;;;;;;;18.23;16.33;;;17.90;99.90;;;;;;5080674;28;20210;-49
2022/10/16 07:44:24;;;;;;;17.60;15.80;;;17.90;99.90;;;;;;5081440;28;20423;-49
2022/10/16 07:46:50;;;;;;;17.50;15.90;;;18.00;99.90;;;;;;5078588;28;20218;-52
2022/10/16 07:49:15;;;;;;;16.53;14.73;;;18.00;99.90;;;;;;5078338;28;20980;-55
2022/10/16 07:51:41;;;;;;;18.27;16.57;;;18.20;99.90;;;;;;5080524;28;20199;-49
2022/10/16 07:54:10;;;;;;;16.80;15.30;;;18.20;99.90;;;;;;5079585;28;20196;-48
2022/10/16 07:56:36;;;;;;;16.10;14.70;;;18.40;99.90;;;;;;5078968;28;20269;-48
2022/10/16 07:59:02;;;;;;;18.53;16.63;;;18.50;99.90;;;;;;5080119;28;20957;-53
2022/10/16 08:01:27;;;;;;;16.87;15.10;;;18.60;99.90;;;;;;5078919;28;20483;-49
2022/10/16 08:03:53;;;;;;;16.30;14.80;;;18.70;99.90;;;;;;5080010;28;20897;-51
2022/10/16 08:06:20;;;;;;;14.73;13.40;;;18.80;99.90;;;;;;5079495;28;20249;-49
2022/10/16 08:08:46;;;;;;;15.40;14.10;;;19.00;99.90;;;;;;5079287;28;20612;-54
2022/10/16 08:11:11;;;;;;;15.67;14.07;;;18.90;99.90;;;;;;5061908;28;21006;-51
2022/10/16 08:13:37;;;;;;;16.27;14.80;;;18.90;99.90;;;;;;5060919;28;20191;-51
2022/10/16 08:16:07;;;;;;;15.17;13.87;;;19.10;99.90;;;;;;5078867;28;20263;-50
2022/10/16 08:18:33;;;;;;;14.87;13.57;;;19.20;99.90;;;;;;5080071;28;20606;-52
2022/10/16 08:21:00;;;;;;;13.57;12.37;;;19.40;99.90;;;;;;5080412;28;20577;-51
2022/10/16 08:23:26;;;;;;;13.50;12.30;;;19.40;99.90;;;;;;5080635;28;20465;-47
2022/10/16 08:25:56;;;;;;;12.77;11.67;;;19.50;99.90;;;;;;5080735;28;20504;-50
2022/10/16 08:28:23;;;;;;;12.40;11.40;;;19.60;99.90;;;;;;5079927;28;20441;-48
2022/10/16 08:30:48;;;;;;;13.10;12.00;;;19.70;99.90;;;;;;5080113;28;20438;-47
2022/10/16 08:33:14;;;;;;;11.60;10.57;;;19.90;99.90;;;;;;5080020;28;20426;-51
2022/10/16 08:35:40;;;;;;;11.80;10.80;;;20.00;99.90;;;;;;5078761;28;20196;-51
2022/10/16 08:38:06;;;;;;;12.80;11.60;;;20.20;99.90;;;;;;5079782;28;20967;-49
2022/10/16 08:40:34;;;;;;;13.73;12.43;;;20.40;99.90;;;;;;5084374;28;20263;-50
2022/10/16 08:43:27;;;;;;;12.50;11.50;;;20.50;99.90;;;;;;5089505;28;20450;-53
2022/10/16 08:46:23;;;;;;;12.73;11.70;;;20.60;99.90;;;;;;5081441;28;20431;-52
2022/10/16 08:48:55;;;;;;;12.90;11.90;;;20.70;99.90;;;;;;5081515;28;20424;-48
2022/10/16 08:51:35;;;;;;;14.13;12.93;;;20.80;99.90;;;;;;5087835;28;20426;-50
2022/10/16 08:54:04;;;;;;;13.63;12.53;;;21.00;99.90;;;;;;5089466;28;20543;-50
2022/10/16 08:56:30;;;;;;;13.70;12.50;;;21.20;99.90;;;;;;5091104;28;20427;-51
2022/10/16 08:58:58;;;;;;;13.27;11.93;;;21.30;99.90;;;;;;5079147;28;20428;-50
2022/10/16 09:01:34;;;;;;;12.93;11.93;;;21.40;99.90;;;;;;5087340;28;20430;-53
2022/10/16 09:04:23;;;;;;;13.70;12.60;;;21.80;99.90;;;;;;5079820;28;20466;-51
2022/10/16 09:06:52;;;;;;;13.93;12.90;;;22.50;99.90;;;;;;5046050;28;20481;-53
2022/10/16 09:09:46;;;;;;;14.20;12.93;;;22.90;99.90;;;;;;5091019;28;20433;-54
2022/10/16 09:12:17;;;;;;;12.77;11.80;;;23.20;99.90;;;;;;5082045;28;20438;-54
2022/10/16 09:14:58;;;;;;;14.63;13.43;;;23.60;99.90;;;;;;5091414;28;20488;-52
2022/10/16 09:17:35;;;;;;;14.23;13.03;;;23.90;99.90;;;;;;5085314;28;20434;-53
2022/10/16 09:20:26;;;;;;;14.20;13.07;;;24.20;99.90;;;;;;5089172;28;20835;-53
2022/10/16 09:23:04;;;;;;;14.20;13.20;;;25.20;99.30;;;;;;5091628;28;20599;-54
2022/10/16 09:25:31;;;;;;;14.40;13.30;;;25.60;96.80;;;;;;5083620;28;20414;-53
2022/10/16 09:27:56;;;;;;;14.30;13.30;;;26.00;95.30;;;;;;5091393;28;20465;-51
2022/10/16 09:30:22;;;;;;;14.87;13.67;;;26.20;94.80;;;;;;5074057;28;20418;-54
2022/10/16 09:32:53;;;;;;;15.00;14.00;;;26.50;93.40;;;;;;5088791;28;20557;-49
2022/10/16 09:35:27;;;;;;;15.00;13.90;;;26.70;92.00;;;;;;5090686;28;20430;-53
2022/10/16 09:37:54;;;;;;;15.93;14.83;;;27.10;91.40;;;;;;5090519;28;20771;-53
2022/10/16 09:40:29;;;;;;;15.77;14.67;;;26.80;90.00;;;;;;5089172;28;20495;-50
2022/10/16 09:43:21;;;;;;;15.30;14.20;;;26.50;91.20;;;;;;5082239;28;20473;-49
2022/10/16 09:45:58;;;;;;;15.93;14.77;;;26.30;91.70;;;;;;5065920;28;20447;-53
2022/10/16 09:48:27;;;;;;;14.40;13.20;;;26.10;91.40;;;;;;5081044;28;20981;-50
2022/10/16 09:50:57;;;;;;;15.80;14.60;;;26.00;92.00;;;;;;5072012;28;20396;-50
2022/10/16 09:53:23;;;;;;;13.83;12.83;;;25.70;92.40;;;;;;5077051;28;20439;-53
2022/10/16 09:55:53;;;;;;;14.13;13.13;;;25.40;92.90;;;;;;5085051;28;20847;-55
2022/10/16 09:58:23;;;;;;;14.07;13.10;;;25.40;93.70;;;;;;5108465;28;20183;-52
2022/10/16 10:00:51;;;;;;;14.17;13.07;;;25.20;93.40;;;;;;5088705;28;22104;-46
2022/10/16 10:03:39;;;;;;;14.63;13.47;;;24.90;93.70;;;;;;5085862;28;21281;-51
2022/10/16 10:06:19;;;;;;;12.70;11.70;;;24.90;94.20;;;;;;5090612;28;20472;-51
2022/10/16 10:09:21;;;;;;;12.87;11.97;;;25.20;94.20;;;;;;5089858;28;20442;-52
2022/10/16 10:11:56;;;;;;;13.00;12.10;;;25.30;94.00;;;;;;5082261;28;20434;-49
2022/10/16 10:14:28;;;;;;;13.00;12.00;;;25.40;93.60;;;;;;5088375;28;20434;-51
2022/10/16 10:17:05;;;;;;;12.80;11.90;;;25.50;93.50;;;;;;5093452;28;20488;-53
2022/10/16 10:19:46;;;;;;;11.37;10.57;;;25.40;94.00;;;;;;5090457;28;20441;-50
2022/10/16 10:22:36;;;;;;;12.00;11.10;;;25.10;94.40;;;;;;5085601;28;20442;-50
2022/10/16 10:25:07;;;;;;;11.60;10.70;;;24.90;95.80;;;;;;5089026;28;20845;-52
2022/10/16 10:28:04;;;;;;;11.20;10.30;;;24.90;95.50;;;;;;5085000;28;20466;-48
2022/10/16 10:30:36;;;;;;;11.83;10.93;;;24.90;95.90;;;;;;5095335;28;20462;-53
2022/10/16 10:33:04;;;;;;;11.13;10.13;;;25.00;95.00;;;;;;5088673;28;20438;-48
2022/10/16 10:35:48;;;;;;;10.10;9.40;;;25.10;95.00;;;;;;5086510;28;20522;-52
2022/10/16 10:38:24;;;;;;;9.10;8.50;;;25.30;94.90;;;;;;5087118;28;20434;-51
2022/10/16 10:41:14;;;;;;;9.10;8.40;;;25.60;93.70;;;;;;5078317;28;20421;-52
2022/10/16 10:43:58;;;;;;;9.30;8.67;;;25.70;92.90;;;;;;5086045;28;20802;-50
2022/10/16 10:46:41;;;;;;;8.67;8.07;;;25.90;92.90;;;;;;5089313;28;20890;-52
2022/10/16 10:49:30;;;;;;;8.07;7.50;;;25.80;92.30;;;;;;5088711;28;20449;-55
2022/10/16 10:52:05;;;;;;;8.00;7.50;;;25.70;92.20;;;;;;5090285;28;20431;-52
2022/10/16 10:54:52;;;;;;;8.17;7.47;;;25.90;91.80;;;;;;5090266;28;20458;-50
2022/10/16 10:57:29;;;;;;;7.47;6.97;;;25.90;92.10;;;;;;5086141;28;20426;-52
2022/10/16 11:00:06;;;;;;;7.30;6.90;;;26.10;91.60;;;;;;5089695;28;20814;-52
2022/10/16 11:02:32;;;;;;;7.20;6.60;;;26.20;90.00;;;;;;5089831;28;20549;-53
2022/10/16 11:05:06;;;;;;;6.70;6.30;;;26.00;90.20;;;;;;5086249;28;20621;-49
2022/10/16 11:07:44;;;;;;;7.13;6.53;;;25.80;89.00;;;;;;5088504;28;20238;-52
2022/10/16 11:10:25;;;;;;;6.20;5.80;;;25.80;90.50;;;;;;5090139;28;20411;-49
2022/10/16 11:12:58;;;;;;;4.10;3.77;;;25.70;90.90;;;;;;5088812;28;20450;-53
2022/10/16 11:15:35;;;;;;;5.17;3.90;;;25.70;90.00;;;;;;5089498;28;20860;-54
2022/10/16 11:18:08;;;;;;;3.17;2.97;;;25.50;89.80;;;;;;5089029;28;20434;-49
2022/10/16 11:20:45;;;;;;;3.30;3.10;;;24.90;89.80;;;;;;5088420;28;20524;-51
2022/10/16 11:23:37;;;;;;;3.00;2.80;;;24.90;91.30;;;;;;5087783;28;20931;-49
2022/10/16 11:26:11;;;;;;;2.47;2.37;;;24.70;91.60;;;;;;5084993;28;20445;-50
2022/10/16 11:28:58;;;;;;;2.90;2.70;;;24.50;91.70;;;;;;5089551;28;20502;-52
2022/10/16 11:31:48;;;;;;;2.60;2.50;;;24.30;92.80;;;;;;5088298;28;20472;-52
2022/10/16 11:34:42;;;;;;;2.53;2.43;;;24.10;91.70;;;;;;5088459;28;20447;-53
2022/10/16 11:37:36;;;;;;;2.60;2.50;;;24.00;92.60;;;;;;5082364;28;20415;-52
2022/10/16 11:40:21;;;;;;;2.93;2.73;;;24.20;92.70;;;;;;5079748;28;20476;-52
2022/10/16 11:43:00;;;;;;;3.20;3.00;;;24.40;91.80;;;;;;5088210;28;20450;-53
2022/10/16 11:45:45;;;;;;;2.93;2.43;;;24.30;91.80;;;;;;5089427;28;20421;-51
2022/10/16 11:48:36;;;;;;;3.10;2.90;;;24.20;92.50;;;;;;5088885;28;20458;-49
2022/10/16 11:51:16;;;;;;;2.90;2.70;;;24.20;91.20;;;;;;5089504;28;20497;-51
2022/10/16 11:53:57;;;;;;;2.90;2.80;;;24.10;91.20;;;;;;5088375;28;20441;-48
2022/10/16 11:56:22;;;;;;;3.20;3.00;;;24.00;91.60;;;;;;5079749;28;20433;-50
2022/10/16 11:59:02;;;;;;;2.70;2.60;;;24.00;92.00;;;;;;5088731;28;20778;-51
2022/10/16 12:01:46;;;;;;;3.03;2.83;;;24.50;92.20;;;;;;5078716;28;20430;-54
2022/10/16 12:04:45;;;;;;;2.90;2.70;;;25.50;89.20;;;;;;5077393;28;20908;-54
2022/10/16 12:07:14;;;;;;;2.73;2.53;;;26.20;83.60;;;;;;5088464;28;20476;-54
2022/10/16 12:09:41;;;;;;;3.60;3.37;;;26.20;81.40;;;;;;5089080;28;20414;-50
2022/10/16 12:12:46;;;;;;;2.93;2.73;;;25.90;82.10;;;;;;5088614;28;20842;-52
2022/10/16 12:15:29;;;;;;;2.53;2.43;;;25.10;85.80;;;;;;5087252;28;20425;-50
2022/10/16 12:17:55;;;;;;;2.40;2.30;;;25.20;86.20;;;;;;5087340;28;20919;-50
2022/10/16 12:20:30;;;;;;;2.73;2.63;;;25.70;83.80;;;;;;5087226;28;20534;-52
2022/10/16 12:22:58;;;;;;;2.63;2.53;;;26.50;80.70;;;;;;5088991;28;21014;-54
2022/10/16 12:25:31;;;;;;;2.73;2.53;;;26.60;78.80;;;;;;5087402;28;20507;-48
2022/10/16 12:28:21;;;;;;;2.43;2.30;;;26.50;76.80;;;;;;5088801;28;20413;-49
2022/10/16 12:31:04;;;;;;;3.23;3.00;;;26.40;77.60;;;;;;5087065;28;20434;-54
2022/10/16 12:33:59;;;;;;;2.93;2.63;;;26.10;78.30;;;;;;5079077;28;20474;-50
2022/10/16 12:36:30;;;;;;;2.93;2.83;;;25.70;78.90;;;;;;5077874;28;20897;-51
2022/10/16 12:38:56;;;;;;;2.63;2.53;;;25.40;80.20;;;;;;5088718;28;20429;-53
2022/10/16 12:41:34;;;;;;;2.53;2.43;;;25.20;81.50;;;;;;5087695;28;20434;-53
2022/10/16 12:44:01;;;;;;;3.07;2.87;;;24.90;82.20;;;;;;5087950;28;20830;-52
2022/10/16 12:46:29;;;;;;;3.00;2.90;;;24.60;84.10;;;;;;5087974;28;20828;-50
2022/10/16 12:49:27;;;;;;;2.80;2.70;;;24.20;84.50;;;;;;5087122;28;20553;-47